createdAt,value
2023-05-06T00:02:09.669Z,99.00
2023-05-06T00:04:36.452Z,98.03
2023-05-06T00:07:03.229Z,98.25
2023-05-06T00:09:29.892Z,98.65
2023-05-06T00:11:57.066Z,97.85
2023-05-06T00:14:23.705Z,97.33
2023-05-06T00:16:51.100Z,96.77
2023-05-06T00:19:17.860Z,98.06
2023-05-06T00:21:44.635Z,96.86
2023-05-06T00:24:11.470Z,96.38
2023-05-06T00:26:38.143Z,96.57
2023-05-06T00:29:04.834Z,96.86
2023-05-06T00:31:31.474Z,97.23
2023-05-06T00:33:58.090Z,97.44
2023-05-06T00:36:24.710Z,97.27
2023-05-06T00:38:51.346Z,97.98
2023-05-06T00:41:18.087Z,97.31
2023-05-06T00:43:44.651Z,97.30
2023-05-06T00:46:11.787Z,99.68
2023-05-06T00:48:38.954Z,97.61
2023-05-06T00:51:05.845Z,96.85
2023-05-06T00:53:33.073Z,97.78
2023-05-06T00:55:59.857Z,99.60
2023-05-06T00:58:26.564Z,100.00
2023-05-06T01:00:53.941Z,100.00
2023-05-06T01:03:21.029Z,100.00
2023-05-06T01:05:59.330Z,100.00
2023-05-06T01:08:32.473Z,100.00
2023-05-06T01:11:09.339Z,100.00
2023-05-06T01:13:57.627Z,100.00
2023-05-06T01:16:27.036Z,100.00
2023-05-06T01:18:55.090Z,100.00
2023-05-06T01:21:23.020Z,100.00
2023-05-06T01:23:58.204Z,100.00
2023-05-06T01:26:25.516Z,100.00
2023-05-06T01:28:52.476Z,100.00
2023-05-06T01:31:43.105Z,100.00
2023-05-06T01:34:21.077Z,100.00
2023-05-06T01:37:05.235Z,100.00
2023-05-06T01:39:33.184Z,100.00
2023-05-06T01:42:02.717Z,100.00
2023-05-06T01:44:33.853Z,100.00
2023-05-06T01:47:01.369Z,100.00
2023-05-06T01:49:29.264Z,100.00
2023-05-06T01:51:56.436Z,100.00
2023-05-06T01:54:23.145Z,100.00
2023-05-06T01:56:49.774Z,100.00
2023-05-06T01:59:16.450Z,100.00
2023-05-06T02:01:43.083Z,100.00
2023-05-06T02:04:09.950Z,100.00
2023-05-06T02:06:36.625Z,100.00
2023-05-06T02:09:03.489Z,100.00
2023-05-06T02:11:30.093Z,100.00
2023-05-06T02:13:57.001Z,100.00
2023-05-06T02:16:23.635Z,100.00
2023-05-06T02:18:50.998Z,100.00
2023-05-06T02:21:17.604Z,100.00
2023-05-06T02:23:44.246Z,100.00
2023-05-06T02:26:10.878Z,100.00
2023-05-06T02:28:37.564Z,100.00
2023-05-06T02:31:04.215Z,100.00
2023-05-06T02:33:30.878Z,100.00
2023-05-06T02:35:57.502Z,100.00
2023-05-06T02:38:24.519Z,100.00
2023-05-06T02:40:51.117Z,100.00
2023-05-06T02:43:17.725Z,100.00
2023-05-06T02:45:44.510Z,100.00
2023-05-06T02:48:11.319Z,100.00
2023-05-06T02:50:37.945Z,100.00
2023-05-06T02:53:04.636Z,100.00
2023-05-06T02:55:31.345Z,100.00
2023-05-06T02:57:57.965Z,100.00
2023-05-06T03:00:24.646Z,100.00
2023-05-06T03:02:51.336Z,100.00
2023-05-06T03:05:18.133Z,100.00
2023-05-06T03:07:44.733Z,100.00
2023-05-06T03:10:11.415Z,100.00
2023-05-06T03:12:38.178Z,100.00
2023-05-06T03:15:05.314Z,100.00
2023-05-06T03:17:32.257Z,100.00
2023-05-06T03:19:58.840Z,100.00
2023-05-06T03:22:25.429Z,100.00
2023-05-06T03:24:52.488Z,100.00
2023-05-06T03:27:19.102Z,100.00
2023-05-06T03:29:45.759Z,100.00
2023-05-06T03:32:12.611Z,100.00
2023-05-06T03:34:39.202Z,100.00
2023-05-06T03:37:06.194Z,100.00
2023-05-06T03:39:32.828Z,100.00
2023-05-06T03:41:59.564Z,100.00
2023-05-06T03:44:26.269Z,100.00
2023-05-06T03:46:52.865Z,100.00
2023-05-06T03:49:20.843Z,100.00
2023-05-06T03:51:47.631Z,100.00
2023-05-06T03:54:14.289Z,100.00
2023-05-06T03:56:40.960Z,100.00
2023-05-06T03:59:07.649Z,100.00
2023-05-06T04:01:35.342Z,100.00
2023-05-06T04:04:02.208Z,100.00
2023-05-06T04:06:29.172Z,100.00
2023-05-06T04:08:55.908Z,100.00
2023-05-06T04:11:22.459Z,100.00
2023-05-06T04:13:49.142Z,100.00
2023-05-06T04:16:15.878Z,100.00
2023-05-06T04:18:43.989Z,100.00
2023-05-06T04:21:13.519Z,100.00
2023-05-06T04:23:39.975Z,100.00
2023-05-06T04:26:06.498Z,100.00
2023-05-06T04:28:33.140Z,100.00
2023-05-06T04:30:59.660Z,100.00
2023-05-06T04:33:27.418Z,100.00
2023-05-06T04:35:54.086Z,100.00
2023-05-06T04:38:21.836Z,100.00
2023-05-06T04:40:48.471Z,100.00
2023-05-06T04:43:14.956Z,100.00
2023-05-06T04:45:49.666Z,100.00
2023-05-06T04:48:17.315Z,100.00
2023-05-06T04:50:44.022Z,100.00
2023-05-06T04:53:11.014Z,100.00
2023-05-06T04:55:37.536Z,100.00
2023-05-06T04:58:04.075Z,100.00
2023-05-06T05:00:30.695Z,100.00
2023-05-06T05:02:57.192Z,100.00
2023-05-06T05:05:24.034Z,100.00
2023-05-06T05:07:50.520Z,100.00
2023-05-06T05:10:17.019Z,100.00
2023-05-06T05:12:43.558Z,100.00
2023-05-06T05:15:10.524Z,100.00
2023-05-06T05:17:37.560Z,100.00
2023-05-06T05:20:05.731Z,100.00
2023-05-06T05:22:32.405Z,100.00
2023-05-06T05:24:58.948Z,100.00
2023-05-06T05:27:25.482Z,100.00
2023-05-06T05:29:51.997Z,100.00
2023-05-06T05:32:18.439Z,100.00
2023-05-06T05:34:44.944Z,100.00
2023-05-06T05:37:11.566Z,100.00
2023-05-06T05:39:38.039Z,100.00
2023-05-06T05:42:04.945Z,100.00
2023-05-06T05:44:31.452Z,100.00
2023-05-06T05:46:57.946Z,100.00
2023-05-06T05:49:24.498Z,100.00
2023-05-06T05:51:51.011Z,100.00
2023-05-06T05:54:17.550Z,100.00
2023-05-06T05:56:44.025Z,100.00
2023-05-06T05:59:10.553Z,100.00
2023-05-06T06:01:37.074Z,100.00
2023-05-06T06:04:03.788Z,100.00
2023-05-06T06:06:31.484Z,100.00
2023-05-06T06:08:58.482Z,100.00
2023-05-06T06:11:26.942Z,100.00
2023-05-06T06:13:53.500Z,100.00
2023-05-06T06:16:20.072Z,100.00
2023-05-06T06:18:46.592Z,100.00
2023-05-06T06:21:13.174Z,100.00
2023-05-06T06:23:39.637Z,100.00
2023-05-06T06:26:06.541Z,100.00
2023-05-06T06:28:33.078Z,99.29
2023-05-06T06:30:59.600Z,99.62
2023-05-06T06:33:26.062Z,99.42
2023-05-06T06:35:52.571Z,98.80
2023-05-06T06:38:19.018Z,98.44
2023-05-06T06:40:45.878Z,96.91
2023-05-06T06:43:12.385Z,95.17
2023-05-06T06:45:38.895Z,95.47
2023-05-06T06:48:05.629Z,88.85
2023-05-06T06:50:32.917Z,91.57
2023-05-06T06:52:59.416Z,93.12
2023-05-06T06:55:25.993Z,92.46
2023-05-06T06:57:52.438Z,94.29
2023-05-06T07:00:19.239Z,92.22
2023-05-06T07:02:48.096Z,90.17
2023-05-06T07:05:14.734Z,90.02
2023-05-06T07:07:41.214Z,90.21
2023-05-06T07:10:08.124Z,90.27
2023-05-06T07:12:34.646Z,87.03
2023-05-06T07:15:01.182Z,87.90
2023-05-06T07:17:27.689Z,86.12
2023-05-06T07:19:54.245Z,87.62
2023-05-06T07:22:20.870Z,86.50
2023-05-06T07:24:47.333Z,86.88
2023-05-06T07:27:13.842Z,88.76
2023-05-06T07:29:40.336Z,87.67
2023-05-06T07:32:06.866Z,85.85
2023-05-06T07:34:34.534Z,85.88
2023-05-06T07:37:01.570Z,84.59
2023-05-06T07:39:28.074Z,85.51
2023-05-06T07:41:54.606Z,82.61
2023-05-06T07:44:21.289Z,80.84
2023-05-06T07:46:48.403Z,81.84
2023-05-06T07:49:14.927Z,80.71
2023-05-06T07:51:42.499Z,80.08
2023-05-06T07:54:09.153Z,80.18
2023-05-06T07:56:35.812Z,77.61
2023-05-06T07:59:02.387Z,79.14
2023-05-06T08:01:31.850Z,77.85
2023-05-06T08:04:00.544Z,76.91
2023-05-06T08:06:27.230Z,76.18
2023-05-06T08:08:53.670Z,76.75
2023-05-06T08:11:20.156Z,72.74
2023-05-06T08:13:47.246Z,72.79
2023-05-06T08:16:13.960Z,72.99
2023-05-06T08:18:40.574Z,73.30
2023-05-06T08:21:07.166Z,71.41
2023-05-06T08:23:33.738Z,70.40
2023-05-06T08:26:00.280Z,69.40
2023-05-06T08:28:26.981Z,70.52
2023-05-06T08:30:53.544Z,68.55
2023-05-06T08:33:20.266Z,68.51
2023-05-06T08:35:47.906Z,69.52
2023-05-06T08:38:14.444Z,70.64
2023-05-06T08:40:42.797Z,70.27
2023-05-06T08:43:12.500Z,70.43
2023-05-06T08:45:39.116Z,70.43
2023-05-06T08:48:06.838Z,72.29
2023-05-06T08:50:33.546Z,71.21
2023-05-06T08:53:01.243Z,71.30
2023-05-06T08:55:27.778Z,71.58
2023-05-06T08:57:54.765Z,70.85
2023-05-06T09:00:21.702Z,71.52
2023-05-06T09:02:48.257Z,71.53
2023-05-06T09:05:14.850Z,70.47
2023-05-06T09:07:41.437Z,70.34
2023-05-06T09:10:12.421Z,70.83
2023-05-06T09:12:39.097Z,72.38
2023-05-06T09:15:05.812Z,71.14
2023-05-06T09:17:32.766Z,71.10
2023-05-06T09:19:59.246Z,70.97
2023-05-06T09:22:28.192Z,70.64
2023-05-06T09:24:57.784Z,68.99
2023-05-06T09:27:24.276Z,68.61
2023-05-06T09:30:01.641Z,68.22
2023-05-06T09:32:28.790Z,67.46
2023-05-06T09:34:56.269Z,67.86
2023-05-06T09:37:23.037Z,68.63
2023-05-06T09:39:50.218Z,67.64
2023-05-06T09:42:16.842Z,65.77
2023-05-06T09:44:44.066Z,65.41
2023-05-06T09:47:10.797Z,66.86
2023-05-06T09:49:37.450Z,64.74
2023-05-06T09:52:04.009Z,64.78
2023-05-06T09:54:31.051Z,67.22
2023-05-06T09:56:59.285Z,65.12
2023-05-06T09:59:28.403Z,63.47
2023-05-06T10:01:55.518Z,64.07
2023-05-06T10:04:26.519Z,64.23
2023-05-06T10:06:56.723Z,61.04
2023-05-06T10:09:27.174Z,59.74
2023-05-06T10:11:54.106Z,58.10
2023-05-06T10:14:20.764Z,58.04
2023-05-06T10:16:48.769Z,60.61
2023-05-06T10:19:18.801Z,61.72
2023-05-06T10:21:48.059Z,60.28
2023-05-06T10:24:16.353Z,56.32
2023-05-06T10:26:45.020Z,59.41
2023-05-06T10:29:11.839Z,56.61
2023-05-06T10:31:40.570Z,55.92
2023-05-06T10:34:08.139Z,58.52
2023-05-06T10:36:36.485Z,56.88
2023-05-06T10:39:04.690Z,57.81
2023-05-06T10:41:31.913Z,57.94
2023-05-06T10:43:59.531Z,56.07
2023-05-06T10:46:27.696Z,58.57
2023-05-06T10:49:06.796Z,57.66
2023-05-06T10:51:34.221Z,56.87
2023-05-06T10:54:04.310Z,57.10
2023-05-06T10:56:32.154Z,57.90
2023-05-06T10:59:04.249Z,56.21
2023-05-06T11:01:31.058Z,55.75
2023-05-06T11:03:57.910Z,56.30
2023-05-06T11:06:36.886Z,57.26
2023-05-06T11:09:04.451Z,53.02
2023-05-06T11:11:49.865Z,52.61
2023-05-06T11:14:25.118Z,53.91
2023-05-06T11:16:52.717Z,52.00
2023-05-06T11:19:23.908Z,51.63
2023-05-06T11:21:51.043Z,52.25
2023-05-06T11:24:53.035Z,51.23
2023-05-06T11:27:22.014Z,51.29
2023-05-06T11:29:48.691Z,48.25
2023-05-06T11:32:33.410Z,49.55
2023-05-06T11:35:00.045Z,51.24
2023-05-06T11:37:27.733Z,47.79
2023-05-06T11:39:54.659Z,49.90
2023-05-06T11:42:25.512Z,48.02
2023-05-06T11:44:54.300Z,47.36
2023-05-06T11:47:24.364Z,45.83
2023-05-06T11:49:54.718Z,47.02
2023-05-06T11:52:21.357Z,46.94
2023-05-06T11:54:49.645Z,48.36
2023-05-06T11:57:16.950Z,48.34
2023-05-06T11:59:43.773Z,47.02
2023-05-06T12:02:12.970Z,45.41
2023-05-06T12:04:43.371Z,45.35
2023-05-06T12:07:11.622Z,43.94
2023-05-06T12:09:39.695Z,44.22
2023-05-06T12:12:07.308Z,42.67
2023-05-06T12:14:34.154Z,42.15
2023-05-06T12:17:01.365Z,42.25
2023-05-06T12:19:28.821Z,43.48
2023-05-06T12:21:56.078Z,41.19
2023-05-06T12:24:30.043Z,41.50
2023-05-06T12:26:57.089Z,43.39
2023-05-06T12:29:23.732Z,42.90
2023-05-06T12:32:06.548Z,43.25
2023-05-06T12:34:39.857Z,44.75
2023-05-06T12:37:06.822Z,44.70
2023-05-06T12:39:37.050Z,44.47
2023-05-06T12:42:03.997Z,43.02
2023-05-06T12:44:33.582Z,43.39
2023-05-06T12:47:03.814Z,42.82
2023-05-06T12:49:50.180Z,41.70
2023-05-06T12:52:17.841Z,42.02
2023-05-06T12:54:44.642Z,40.84
2023-05-06T12:57:11.492Z,42.62
2023-05-06T12:59:38.232Z,43.27
2023-05-06T13:02:05.709Z,44.74
2023-05-06T13:04:32.466Z,39.97
2023-05-06T13:06:59.323Z,43.58
2023-05-06T13:09:26.129Z,40.93
2023-05-06T13:11:52.848Z,41.65
2023-05-06T13:14:19.715Z,42.73
2023-05-06T13:16:46.672Z,42.99
2023-05-06T13:19:31.033Z,44.21
2023-05-06T13:22:00.615Z,44.44
2023-05-06T13:24:27.587Z,43.96
2023-05-06T13:26:54.393Z,43.80
2023-05-06T13:29:20.989Z,43.53
2023-05-06T13:31:47.827Z,43.76
2023-05-06T13:34:14.466Z,42.23
2023-05-06T13:36:42.463Z,42.69
2023-05-06T13:39:09.012Z,44.51
2023-05-06T13:41:35.756Z,42.83
2023-05-06T13:44:02.475Z,42.02
2023-05-06T13:46:29.323Z,42.70
2023-05-06T13:48:56.085Z,42.90
2023-05-06T13:51:22.815Z,44.15
2023-05-06T13:53:49.500Z,43.04
2023-05-06T13:56:16.048Z,44.06
2023-05-06T13:58:42.584Z,44.35
2023-05-06T14:01:09.207Z,44.96
2023-05-06T14:03:35.972Z,43.41
2023-05-06T14:06:02.698Z,41.45
2023-05-06T14:08:29.376Z,41.71
2023-05-06T14:10:56.356Z,42.09
2023-05-06T14:13:23.267Z,39.74
2023-05-06T14:15:50.040Z,41.89
2023-05-06T14:18:16.781Z,39.81
2023-05-06T14:20:43.398Z,40.39
2023-05-06T14:23:10.130Z,42.04
2023-05-06T14:25:36.903Z,41.36
2023-05-06T14:28:03.718Z,40.85
2023-05-06T14:30:31.386Z,40.67
2023-05-06T14:32:59.015Z,40.43
2023-05-06T14:35:25.796Z,39.72
2023-05-06T14:37:52.943Z,41.02
2023-05-06T14:40:19.679Z,41.75
2023-05-06T14:42:46.429Z,41.73
2023-05-06T14:45:13.868Z,41.38
2023-05-06T14:47:41.093Z,42.54
2023-05-06T14:50:09.384Z,43.54
2023-05-06T14:52:36.777Z,43.61
2023-05-06T14:55:03.872Z,43.18
2023-05-06T14:57:30.479Z,43.69
2023-05-06T14:59:57.201Z,44.03
2023-05-06T15:02:23.879Z,43.64
2023-05-06T15:04:50.876Z,43.96
2023-05-06T15:07:17.667Z,44.15
2023-05-06T15:09:44.381Z,44.24
2023-05-06T15:12:11.627Z,44.02
2023-05-06T15:14:39.096Z,44.32
2023-05-06T15:17:06.301Z,45.36
2023-05-06T15:19:34.053Z,45.27
2023-05-06T15:22:00.889Z,44.66
2023-05-06T15:24:27.528Z,44.76
2023-05-06T15:26:54.161Z,44.77
2023-05-06T15:29:20.982Z,44.56
2023-05-06T15:31:47.734Z,45.97
2023-05-06T15:34:14.422Z,43.96
2023-05-06T15:36:44.508Z,44.27
2023-05-06T15:39:11.170Z,42.82
2023-05-06T15:41:38.188Z,43.77
2023-05-06T15:44:06.131Z,43.63
2023-05-06T15:46:33.283Z,44.45
2023-05-06T15:49:15.603Z,44.20
2023-05-06T15:51:44.281Z,44.83
2023-05-06T15:54:11.281Z,42.73
2023-05-06T15:56:40.898Z,44.45
2023-05-06T15:59:08.374Z,43.00
2023-05-06T16:02:04.793Z,43.69
2023-05-06T16:04:21.839Z,43.91
2023-05-06T16:06:48.935Z,43.80
2023-05-06T16:09:15.794Z,43.93
2023-05-06T16:11:42.407Z,43.61
2023-05-06T16:14:09.130Z,44.58
2023-05-06T16:16:36.151Z,45.48
2023-05-06T16:19:02.931Z,44.85
2023-05-06T16:21:29.665Z,45.15
2023-05-06T16:23:56.297Z,45.00
2023-05-06T16:26:22.996Z,44.44
2023-05-06T16:28:49.635Z,44.48
2023-05-06T16:31:16.282Z,44.78
2023-05-06T16:33:43.060Z,45.06
2023-05-06T16:36:09.685Z,45.48
2023-05-06T16:38:36.637Z,45.31
2023-05-06T16:41:03.440Z,45.28
2023-05-06T16:43:30.120Z,44.95
2023-05-06T16:45:56.712Z,45.35
2023-05-06T16:48:23.338Z,45.42
2023-05-06T16:50:49.949Z,46.24
2023-05-06T16:53:17.525Z,45.32
2023-05-06T16:55:48.707Z,43.89
2023-05-06T16:58:15.675Z,44.53
2023-05-06T17:00:42.505Z,45.71
2023-05-06T17:03:09.271Z,45.41
2023-05-06T17:05:36.489Z,46.61
2023-05-06T17:08:04.021Z,45.42
2023-05-06T17:10:30.576Z,45.88
2023-05-06T17:12:57.603Z,46.42
2023-05-06T17:15:24.519Z,46.87
2023-05-06T17:17:51.389Z,48.17
2023-05-06T17:20:20.074Z,47.60
2023-05-06T17:22:46.741Z,48.52
2023-05-06T17:25:13.594Z,48.23
2023-05-06T17:27:40.260Z,48.73
2023-05-06T17:30:09.638Z,49.17
2023-05-06T17:32:36.842Z,49.18
2023-05-06T17:35:03.670Z,49.78
2023-05-06T17:37:31.037Z,50.09
2023-05-06T17:39:58.073Z,50.66
2023-05-06T17:42:24.890Z,50.83
2023-05-06T17:44:51.754Z,51.16
2023-05-06T17:47:21.177Z,51.75
2023-05-06T17:49:48.103Z,51.77
2023-05-06T17:52:15.182Z,52.16
2023-05-06T17:54:41.960Z,52.67
2023-05-06T17:57:08.728Z,52.60
2023-05-06T17:59:35.990Z,52.54
2023-05-06T18:02:03.144Z,52.95
2023-05-06T18:04:30.154Z,53.06
2023-05-06T18:06:57.195Z,53.59
2023-05-06T18:09:24.173Z,53.81
2023-05-06T18:11:51.103Z,54.42
2023-05-06T18:14:17.971Z,54.08
2023-05-06T18:16:45.332Z,55.12
2023-05-06T18:19:12.125Z,55.44
2023-05-06T18:21:39.369Z,55.94
2023-05-06T18:24:16.200Z,56.69
2023-05-06T18:26:45.774Z,57.11
2023-05-06T18:29:18.547Z,57.42
2023-05-06T18:31:51.312Z,57.96
2023-05-06T18:34:19.399Z,58.52
2023-05-06T18:36:53.160Z,59.16
2023-05-06T18:39:30.495Z,59.90
2023-05-06T18:41:59.579Z,60.41
2023-05-06T18:44:35.161Z,61.05
2023-05-06T18:47:07.567Z,61.48
2023-05-06T18:49:36.886Z,61.83
2023-05-06T18:52:09.694Z,62.58
2023-05-06T18:54:41.818Z,63.72
2023-05-06T18:57:23.340Z,64.01
2023-05-06T18:59:57.412Z,65.21
2023-05-06T19:02:35.219Z,66.30
2023-05-06T19:05:15.171Z,66.75
2023-05-06T19:07:47.431Z,66.95
2023-05-06T19:10:21.490Z,67.19
2023-05-06T19:15:52.244Z,68.31
2023-05-06T19:18:26.441Z,68.21
2023-05-06T19:20:58.447Z,68.91
2023-05-06T19:23:38.793Z,69.25
2023-05-06T19:26:21.375Z,69.80
2023-05-06T19:32:22.602Z,70.18
2023-05-06T19:34:49.287Z,71.11
2023-05-06T19:37:15.918Z,71.77
2023-05-06T19:39:42.960Z,72.07
2023-05-06T19:42:09.586Z,72.87
2023-05-06T19:44:36.175Z,72.82
2023-05-06T19:47:02.809Z,73.39
2023-05-06T19:49:32.193Z,73.20
2023-05-06T19:51:59.053Z,74.93
2023-05-06T19:54:27.036Z,75.25
2023-05-06T19:56:53.674Z,74.67
2023-05-06T19:59:20.280Z,75.35
2023-05-06T20:01:46.948Z,75.77
2023-05-06T20:04:13.689Z,76.96
2023-05-06T20:06:40.959Z,77.30
2023-05-06T20:09:07.513Z,77.46
2023-05-06T20:11:34.197Z,79.32
2023-05-06T20:14:00.859Z,79.92
2023-05-06T20:16:27.574Z,80.62
2023-05-06T20:18:54.319Z,79.51
2023-05-06T20:21:20.915Z,80.34
2023-05-06T20:23:47.529Z,80.73
2023-05-06T20:26:14.135Z,82.29
2023-05-06T20:28:40.742Z,83.17
2023-05-06T20:31:07.655Z,82.76
2023-05-06T20:33:34.312Z,82.91
2023-05-06T20:36:00.922Z,83.45
2023-05-06T20:38:31.068Z,83.92
2023-05-06T20:40:58.915Z,85.04
2023-05-06T20:43:25.951Z,84.37
2023-05-06T20:45:52.963Z,84.62
2023-05-06T20:48:19.889Z,85.07
2023-05-06T20:50:46.592Z,85.03
2023-05-06T20:53:13.263Z,85.75
2023-05-06T20:55:40.117Z,86.12
2023-05-06T20:58:06.955Z,85.90
2023-05-06T21:00:33.578Z,86.92
2023-05-06T21:03:00.415Z,86.37
2023-05-06T21:05:27.380Z,87.04
2023-05-06T21:07:54.111Z,87.55
2023-05-06T21:10:20.772Z,87.30
2023-05-06T21:12:48.372Z,88.22
2023-05-06T21:15:15.464Z,87.85
2023-05-06T21:17:42.446Z,87.88
2023-05-06T21:20:09.363Z,88.20
2023-05-06T21:22:35.920Z,88.19
2023-05-06T21:25:02.526Z,88.62
2023-05-06T21:27:29.385Z,89.05
2023-05-06T21:29:56.827Z,89.24
2023-05-06T21:32:23.450Z,89.16
2023-05-06T21:34:50.208Z,89.08
2023-05-06T21:37:16.834Z,89.57
2023-05-06T21:39:43.508Z,89.34
2023-05-06T21:42:10.209Z,89.67
2023-05-06T21:44:43.231Z,89.65
2023-05-06T21:47:09.913Z,88.51
2023-05-06T21:50:10.826Z,88.68
2023-05-06T21:52:38.236Z,89.79
2023-05-06T21:55:05.421Z,89.07
2023-05-06T21:57:32.886Z,89.61
2023-05-06T21:59:59.776Z,89.87
2023-05-06T22:02:26.682Z,90.04
2023-05-06T22:04:53.416Z,90.65
2023-05-06T22:07:19.948Z,90.69
2023-05-06T22:09:46.572Z,90.62
2023-05-06T22:12:15.592Z,90.04
2023-05-06T22:14:42.494Z,90.89
2023-05-06T22:17:10.736Z,90.96
2023-05-06T22:19:38.437Z,91.79
2023-05-06T22:22:05.844Z,91.95
2023-05-06T22:24:32.525Z,92.59
2023-05-06T22:26:59.145Z,94.39
2023-05-06T22:29:25.704Z,94.98
2023-05-06T22:31:52.375Z,95.83
2023-05-06T22:34:18.950Z,95.77
2023-05-06T22:36:45.651Z,97.70
2023-05-06T22:39:12.196Z,97.25
2023-05-06T22:41:39.074Z,97.53
2023-05-06T22:44:05.845Z,97.82
2023-05-06T22:46:32.835Z,97.97
2023-05-06T22:49:00.249Z,98.74
2023-05-06T22:51:26.963Z,99.29
2023-05-06T22:53:53.821Z,99.96
2023-05-06T22:56:21.116Z,99.30
2023-05-06T22:58:47.623Z,99.97
2023-05-06T23:01:14.254Z,100.00
2023-05-06T23:03:40.895Z,100.00
2023-05-06T23:06:07.590Z,100.00
2023-05-06T23:08:34.162Z,100.00
2023-05-06T23:11:00.946Z,100.00
2023-05-06T23:13:27.606Z,100.00
2023-05-06T23:15:54.544Z,100.00
2023-05-06T23:18:21.386Z,100.00
2023-05-06T23:20:48.055Z,100.00
2023-05-06T23:23:14.758Z,100.00
2023-05-06T23:25:41.284Z,100.00
2023-05-06T23:28:07.908Z,100.00
2023-05-06T23:30:34.638Z,100.00
2023-05-06T23:33:01.333Z,100.00
2023-05-06T23:35:28.043Z,100.00
2023-05-06T23:37:54.672Z,100.00
2023-05-06T23:40:21.225Z,100.00
2023-05-06T23:42:47.898Z,100.00
2023-05-06T23:45:14.500Z,100.00
2023-05-06T23:47:41.212Z,100.00
2023-05-06T23:50:08.025Z,100.00
2023-05-06T23:52:36.617Z,100.00
2023-05-06T23:55:03.203Z,100.00
2023-05-06T23:57:29.747Z,100.00
2023-05-06T23:59:56.590Z,100.00
